Time;durP1;ratioP1;P1;durP2;ratioP2;P2;SDS_P1;SDS_P2;PMS_P1;PMS_P2;Temp;Humidity;BMP_temperature;BMP_pressure;BME280_temperature;BME280_humidity;BME280_pressure;Samples;Min_cycle;Max_cycle;Signal;HPM_P1;HPM_P2
2021/07/03 00:00:58;;;;;;;8.90;6.13;;;;;;;17.09;66.23;98704.91;5052222;28;20033;-69
2021/07/03 00:03:23;;;;;;;8.05;6.55;;;;;;;17.11;65.99;98702.22;5052256;28;20078;-69
2021/07/03 00:05:49;;;;;;;7.10;5.50;;;;;;;17.13;65.98;98693.47;5051162;28;20078;-69
2021/07/03 00:08:14;;;;;;;6.78;5.63;;;;;;;17.04;66.49;98696.47;5050361;28;20025;-69
2021/07/03 00:10:40;;;;;;;8.30;5.68;;;;;;;17.05;66.18;98705.09;5050486;28;20025;-70
2021/07/03 00:13:05;;;;;;;8.15;6.05;;;;;;;17.02;66.56;98695.69;5050638;28;20412;-69
2021/07/03 00:15:31;;;;;;;6.50;5.38;;;;;;;17.06;66.39;98693.81;5047904;28;20095;-69
2021/07/03 00:17:58;;;;;;;5.90;4.90;;;;;;;17.04;66.49;98696.47;5049843;28;20396;-69
2021/07/03 00:20:24;;;;;;;9.77;5.85;;;;;;;17.05;66.44;98703.34;5050466;28;20108;-69
2021/07/03 00:22:50;;;;;;;8.25;6.68;;;;;;;17.04;66.68;98703.41;5051263;28;20534;-69
2021/07/03 00:25:16;;;;;;;6.75;5.65;;;;;;;17.03;66.82;98712.06;5048711;28;20043;-70
2021/07/03 00:27:41;;;;;;;6.72;5.68;;;;;;;17.08;66.57;98699.75;5049422;28;20036;-70
2021/07/03 00:30:09;;;;;;;8.05;7.03;;;;;;;17.11;66.54;98710.84;5047637;28;20033;-70
2021/07/03 00:32:35;;;;;;;7.30;5.80;;;;;;;17.04;66.69;98712.00;5050211;28;20029;-69
2021/07/03 00:35:01;;;;;;;9.07;6.57;;;;;;;17.00;66.49;98701.84;5050965;28;20028;-69
2021/07/03 00:37:27;;;;;;;9.25;6.68;;;;;;;17.06;66.45;98714.56;5048186;28;20112;-69
2021/07/03 00:39:52;;;;;;;8.38;5.93;;;;;;;16.99;66.85;98715.72;5049665;28;20033;-69
2021/07/03 00:42:18;;;;;;;8.55;6.07;;;;;;;17.06;66.82;98717.16;5048208;28;20040;-69
2021/07/03 00:44:43;;;;;;;7.63;6.00;;;;;;;17.02;66.49;98719.00;5050434;28;20057;-69
2021/07/03 00:47:09;;;;;;;7.97;6.15;;;;;;;17.07;66.63;98706.69;5049861;28;20063;-70
2021/07/03 00:49:38;;;;;;;8.32;6.28;;;;;;;17.07;66.60;98711.88;5050752;28;20029;-70
2021/07/03 00:52:06;;;;;;;9.00;6.28;;;;;;;17.05;66.62;98705.09;5047705;28;20034;-70
2021/07/03 00:54:36;;;;;;;6.88;6.00;;;;;;;17.05;66.88;98698.16;5049438;28;20140;-70
2021/07/03 00:57:03;;;;;;;7.80;6.13;;;;;;;16.97;67.20;98700.25;5049555;28;20028;-70
2021/07/03 00:59:44;;;;;;;6.93;6.05;;;;;;;17.04;67.07;98711.19;5048730;28;20090;-69
2021/07/03 01:02:12;;;;;;;7.78;6.57;;;;;;;16.95;67.26;98724.53;5050583;28;20407;-69
2021/07/03 01:04:38;;;;;;;10.48;6.13;;;;;;;16.92;67.18;98706.53;5049281;28;20116;-69
2021/07/03 01:07:05;;;;;;;11.77;6.30;;;;;;;16.94;67.31;98707.28;5047989;28;20116;-69
2021/07/03 01:09:31;;;;;;;8.55;6.53;;;;;;;16.93;67.37;98705.63;5048945;28;20028;-69
2021/07/03 01:11:56;;;;;;;6.63;6.03;;;;;;;16.83;67.58;98711.19;5048780;28;20049;-69
2021/07/03 01:14:22;;;;;;;7.32;6.20;;;;;;;16.85;67.54;98718.88;5048475;28;20022;-69
2021/07/03 01:16:48;;;;;;;7.63;6.85;;;;;;;16.84;68.06;98719.81;5047903;28;20373;-69
2021/07/03 01:19:15;;;;;;;10.13;6.07;;;;;;;16.80;67.96;98720.84;5051957;28;20052;-69
2021/07/03 01:21:46;;;;;;;8.43;6.05;;;;;;;16.81;68.10;98722.50;5024072;28;20071;-69
2021/07/03 01:24:11;;;;;;;6.93;6.22;;;;;;;16.75;68.44;98721.03;5050737;28;20029;-70
2021/07/03 01:26:42;;;;;;;7.55;6.68;;;;;;;16.82;68.49;98724.19;5049376;28;20039;-69
2021/07/03 01:29:08;;;;;;;9.45;6.50;;;;;;;16.74;68.60;98721.09;5046293;28;20037;-70
2021/07/03 01:31:33;;;;;;;8.40;6.22;;;;;;;16.66;68.58;98726.59;5047384;28;20033;-69
2021/07/03 01:33:59;;;;;;;9.75;5.97;;;;;;;16.66;68.75;98715.41;5049152;28;20043;-69
2021/07/03 01:36:24;;;;;;;8.13;6.28;;;;;;;16.65;68.65;98724.06;5048821;28;20336;-69
2021/07/03 01:38:50;;;;;;;9.73;7.00;;;;;;;16.73;68.71;98709.06;5051413;28;20029;-70
2021/07/03 01:41:15;;;;;;;7.25;6.13;;;;;;;16.66;68.94;98707.63;5047901;28;20340;-69
2021/07/03 01:43:40;;;;;;;8.07;6.07;;;;;;;16.59;68.83;98714.00;5049437;28;20346;-69
2021/07/03 01:46:06;;;;;;;8.00;6.15;;;;;;;16.59;69.03;98719.97;5049051;28;20028;-70
2021/07/03 01:48:32;;;;;;;8.52;6.30;;;;;;;16.59;69.18;98714.00;5052936;28;20048;-69
2021/07/03 01:50:59;;;;;;;7.88;6.50;;;;;;;16.67;68.73;98709.34;5052571;28;20096;-70
2021/07/03 01:53:26;;;;;;;10.30;6.90;;;;;;;16.60;69.27;98711.31;5053161;28;20021;-69
2021/07/03 01:55:52;;;;;;;7.95;7.15;;;;;;;16.65;69.14;98711.13;5055567;28;20052;-70
2021/07/03 01:58:22;;;;;;;8.20;6.75;;;;;;;16.62;69.14;98722.47;5053554;28;20063;-69
2021/07/03 02:00:52;;;;;;;9.60;6.97;;;;;;;16.70;68.86;98712.63;5053580;28;20059;-69
2021/07/03 02:03:19;;;;;;;8.23;6.80;;;;;;;16.63;68.77;98720.72;5052291;28;20120;-69
2021/07/03 02:05:45;;;;;;;8.52;7.05;;;;;;;16.61;69.11;98718.19;5052211;28;20563;-69
2021/07/03 02:08:11;;;;;;;12.40;5.50;;;;;;;16.60;69.11;98720.81;5053897;28;20039;-69
2021/07/03 02:10:36;;;;;;;10.57;6.70;;;;;;;16.63;69.12;98710.38;5051933;28;20390;-69
2021/07/03 02:13:02;;;;;;;8.68;6.47;;;;;;;16.64;69.31;98712.03;5052600;28;20068;-70
2021/07/03 02:15:28;;;;;;;10.40;6.72;;;;;;;16.62;69.06;98716.44;5053869;28;20397;-69
2021/07/03 02:17:53;;;;;;;9.27;6.53;;;;;;;16.60;69.29;98716.50;5051865;28;20033;-69
2021/07/03 02:20:19;;;;;;;9.68;7.00;;;;;;;16.57;69.36;98710.56;5052655;28;20393;-69
2021/07/03 02:22:44;;;;;;;11.82;8.85;;;;;;;16.57;68.74;98713.16;5052376;28;20377;-70
2021/07/03 02:25:11;;;;;;;8.75;6.13;;;;;;;16.59;69.00;98717.41;5053585;28;20141;-69
2021/07/03 02:27:36;;;;;;;8.77;6.93;;;;;;;16.55;69.14;98707.22;5052348;28;20429;-70
2021/07/03 02:30:06;;;;;;;7.10;6.38;;;;;;;16.58;69.29;98718.31;5051357;28;20036;-69
2021/07/03 02:32:31;;;;;;;8.30;6.35;;;;;;;16.46;69.09;98711.84;5051157;28;20055;-70
2021/07/03 02:34:57;;;;;;;9.20;6.57;;;;;;;16.48;69.06;98710.97;5052382;28;20040;-69
2021/07/03 02:37:22;;;;;;;7.95;6.50;;;;;;;16.52;68.88;98712.50;5050823;28;20025;-68
2021/07/03 02:39:48;;;;;;;8.60;5.78;;;;;;;16.45;69.40;98707.59;5052128;28;20025;-68
2021/07/03 02:42:13;;;;;;;7.45;6.22;;;;;;;16.42;69.52;98707.72;5053529;28;20032;-68
2021/07/03 02:44:38;;;;;;;7.75;6.45;;;;;;;16.38;69.59;98707.91;5053734;28;20032;-69
2021/07/03 02:47:04;;;;;;;7.95;6.28;;;;;;;16.40;69.45;98704.34;5052294;28;20036;-68
2021/07/03 02:49:29;;;;;;;11.07;6.80;;;;;;;16.29;69.61;98693.63;5052226;28;20036;-70
2021/07/03 02:51:56;;;;;;;9.13;6.57;;;;;;;16.32;69.91;98697.81;5050993;28;20233;-69
2021/07/03 02:54:22;;;;;;;8.70;5.95;;;;;;;16.29;69.61;98703.97;5053429;28;20422;-69
2021/07/03 02:56:47;;;;;;;10.52;6.88;;;;;;;16.27;69.95;98704.91;5053210;28;20089;-70
2021/07/03 02:59:12;;;;;;;9.70;5.95;;;;;;;16.25;70.00;98706.75;5050933;28;20110;-69
2021/07/03 03:01:38;;;;;;;7.82;6.53;;;;;;;16.23;69.53;98704.22;5052733;28;20120;-68
2021/07/03 03:04:03;;;;;;;10.23;6.72;;;;;;;16.26;69.93;98709.25;5052845;28;20025;-69
2021/07/03 03:06:29;;;;;;;7.38;6.35;;;;;;;16.23;70.09;98716.28;5050402;28;20024;-68
2021/07/03 03:08:54;;;;;;;7.88;6.25;;;;;;;16.25;69.59;98710.16;5051965;28;20035;-68
2021/07/03 03:11:20;;;;;;;7.28;5.90;;;;;;;16.30;69.16;98715.13;5049768;28;20083;-68
2021/07/03 03:13:45;;;;;;;7.10;6.35;;;;;;;16.30;69.52;98715.97;5053657;28;20041;-69
2021/07/03 03:16:10;;;;;;;10.07;7.22;;;;;;;16.33;69.30;98717.63;5052522;28;20044;-69
2021/07/03 03:18:36;;;;;;;8.82;7.00;;;;;;;16.32;69.60;98706.44;5052386;28;20036;-69
2021/07/03 03:21:02;;;;;;;6.65;6.03;;;;;;;16.34;68.89;98714.94;5051840;28;20052;-68
2021/07/03 03:23:27;;;;;;;11.07;6.35;;;;;;;16.36;68.87;98712.31;5052912;28;20366;-69
2021/07/03 03:25:53;;;;;;;7.85;6.22;;;;;;;16.39;69.11;98717.34;5052430;28;20032;-69
2021/07/03 03:28:18;;;;;;;9.05;6.65;;;;;;;16.39;69.00;98710.44;5051142;28;20049;-70
2021/07/03 03:30:44;;;;;;;9.63;7.10;;;;;;;16.38;68.96;98700.97;5051898;28;20144;-69
2021/07/03 03:33:09;;;;;;;8.85;6.45;;;;;;;16.38;69.01;98710.47;5052425;28;20049;-69
2021/07/03 03:35:34;;;;;;;9.45;6.38;;;;;;;16.36;69.41;98707.13;5052279;28;20033;-69
2021/07/03 03:38:00;;;;;;;8.40;7.38;;;;;;;16.28;69.64;98698.84;5051072;28;20029;-69
2021/07/03 03:40:28;;;;;;;10.50;6.60;;;;;;;16.31;69.60;98702.16;5051601;28;20044;-69
2021/07/03 03:42:55;;;;;;;8.95;6.88;;;;;;;16.33;69.98;98691.75;5049145;28;20091;-69
2021/07/03 03:45:20;;;;;;;7.82;7.00;;;;;;;16.28;69.79;98686.75;5052287;28;20029;-70
2021/07/03 03:47:46;;;;;;;10.05;7.05;;;;;;;16.27;69.30;98673.88;5050011;28;20091;-69
2021/07/03 03:50:12;;;;;;;8.48;6.72;;;;;;;16.33;69.58;98678.81;5051021;28;20080;-69
2021/07/03 03:52:37;;;;;;;10.82;6.40;;;;;;;16.37;69.32;98663.09;5051999;28;20035;-69
2021/07/03 03:55:04;;;;;;;10.15;7.18;;;;;;;16.43;69.02;98669.75;5050976;28;20420;-69
2021/07/03 03:57:30;;;;;;;10.38;6.95;;;;;;;16.43;69.01;98668.00;5050667;28;20040;-69
2021/07/03 03:59:57;;;;;;;8.80;6.78;;;;;;;16.52;68.39;98676.28;5049938;28;20029;-70
2021/07/03 04:02:24;;;;;;;11.25;6.32;;;;;;;16.57;68.36;98669.16;5049062;28;20036;-69
2021/07/03 04:04:51;;;;;;;8.13;6.88;;;;;;;16.57;68.64;98671.75;5052243;28;20033;-70
2021/07/03 04:07:18;;;;;;;12.30;7.28;;;;;;;16.60;68.35;98658.69;5050973;28;20630;-69
2021/07/03 04:09:43;;;;;;;8.23;6.50;;;;;;;16.67;68.12;98657.56;5049609;28;20058;-70
2021/07/03 04:12:09;;;;;;;8.57;6.97;;;;;;;16.75;67.76;98664.09;5049420;28;20330;-69
2021/07/03 04:14:35;;;;;;;9.63;6.78;;;;;;;16.69;68.02;98666.09;5047831;28;20512;-69
2021/07/03 04:17:00;;;;;;;9.38;6.93;;;;;;;16.79;67.64;98659.59;5049580;28;20378;-69
2021/07/03 04:19:25;;;;;;;9.73;7.20;;;;;;;16.86;67.58;98667.03;5051968;28;20172;-69
2021/07/03 04:21:51;;;;;;;8.27;6.18;;;;;;;16.91;67.15;98664.25;5049274;28;20294;-69
2021/07/03 04:24:16;;;;;;;10.93;7.68;;;;;;;16.92;66.99;98673.72;5051343;28;20085;-69
2021/07/03 04:26:42;;;;;;;8.68;6.55;;;;;;;17.01;66.72;98675.91;5050269;28;20052;-69
2021/07/03 04:29:07;;;;;;;8.20;6.10;;;;;;;17.08;66.67;98672.13;5049923;28;20029;-69
2021/07/03 04:31:32;;;;;;;11.32;7.13;;;;;;;17.24;66.16;98667.91;5049271;28;20036;-70
2021/07/03 04:33:58;;;;;;;9.73;6.40;;;;;;;17.15;66.37;98670.06;5050327;28;20029;-70
2021/07/03 04:36:23;;;;;;;9.00;7.30;;;;;;;17.18;66.31;98668.22;5050437;28;20389;-70
2021/07/03 04:38:49;;;;;;;9.30;6.65;;;;;;;17.36;65.67;98676.88;5047207;28;20037;-70
2021/07/03 04:41:14;;;;;;;8.13;6.53;;;;;;;17.46;65.28;98682.50;5048039;28;20032;-70
2021/07/03 04:43:39;;;;;;;11.15;6.72;;;;;;;17.54;64.79;98686.41;5049287;28;20156;-70
2021/07/03 04:46:05;;;;;;;8.30;6.50;;;;;;;17.60;64.49;98675.81;5050893;28;20021;-70
2021/07/03 04:48:30;;;;;;;8.05;6.40;;;;;;;17.67;64.29;98681.53;5051444;28;20374;-70
2021/07/03 04:50:56;;;;;;;9.82;7.63;;;;;;;17.76;63.56;98689.72;5049457;28;20133;-70
2021/07/03 04:53:21;;;;;;;7.22;5.97;;;;;;;17.76;63.08;98687.13;5049576;28;20037;-69
2021/07/03 04:55:46;;;;;;;11.32;7.75;;;;;;;17.78;63.35;98694.81;5048018;28;20073;-70
2021/07/03 04:58:12;;;;;;;7.88;6.72;;;;;;;17.76;63.24;98691.47;5050305;28;20352;-70
2021/07/03 05:00:37;;;;;;;6.60;5.88;;;;;;;17.91;62.73;98693.34;5048864;28;20381;-70
2021/07/03 05:03:03;;;;;;;7.53;6.55;;;;;;;18.11;62.53;98695.00;5050105;28;20033;-70
2021/07/03 05:05:28;;;;;;;9.52;6.43;;;;;;;18.29;61.80;98696.66;5047590;28;20025;-69
2021/07/03 05:07:54;;;;;;;7.13;6.40;;;;;;;18.40;60.91;98694.41;5049181;28;20029;-69
2021/07/03 05:10:19;;;;;;;7.90;6.35;;;;;;;18.38;60.98;98705.75;5049444;28;20033;-70
2021/07/03 05:12:44;;;;;;;6.13;5.55;;;;;;;18.40;60.84;98709.13;5050053;28;20057;-69
2021/07/03 05:15:10;;;;;;;9.80;7.10;;;;;;;18.53;60.03;98705.91;5049678;28;20035;-70
2021/07/03 05:17:36;;;;;;;7.35;6.30;;;;;;;18.47;60.71;98711.34;5049164;28;20043;-70
2021/07/03 05:20:02;;;;;;;7.68;6.88;;;;;;;18.54;59.72;98706.75;5048425;28;20045;-69
2021/07/03 05:22:28;;;;;;;6.80;5.78;;;;;;;18.48;60.12;98709.59;5053596;28;20114;-69
2021/07/03 05:24:53;;;;;;;7.03;5.70;;;;;;;18.45;60.36;98700.22;5051825;28;20041;-69
2021/07/03 05:27:18;;;;;;;6.65;5.82;;;;;;;18.54;59.66;98709.34;5053622;28;20378;-70
2021/07/03 05:29:44;;;;;;;7.20;6.50;;;;;;;18.48;59.45;98702.66;5054825;28;20436;-69
2021/07/03 05:32:09;;;;;;;6.40;5.53;;;;;;;18.61;59.04;98710.69;5050038;28;20033;-70
2021/07/03 05:34:35;;;;;;;7.28;5.97;;;;;;;18.50;58.64;98710.38;5055107;28;20559;-70
2021/07/03 05:37:00;;;;;;;8.50;6.50;;;;;;;18.56;59.18;98713.53;5052857;28;20033;-70
2021/07/03 05:39:26;;;;;;;7.90;6.45;;;;;;;18.59;58.98;98707.31;5051369;28;20036;-70
2021/07/03 05:41:51;;;;;;;6.35;5.57;;;;;;;18.56;59.12;98710.09;5053138;28;20399;-70
2021/07/03 05:44:17;;;;;;;7.45;5.25;;;;;;;18.78;58.71;98710.69;5051248;28;20463;-69
2021/07/03 05:46:43;;;;;;;5.75;5.15;;;;;;;18.75;57.89;98716.06;5051612;28;20036;-69
2021/07/03 05:49:08;;;;;;;6.82;5.57;;;;;;;18.88;58.09;98714.50;5054034;28;20427;-70
2021/07/03 05:51:35;;;;;;;8.15;6.32;;;;;;;18.93;57.31;98717.69;5052765;28;20040;-70
2021/07/03 05:54:01;;;;;;;6.25;4.90;;;;;;;18.98;56.83;98713.09;5052529;28;20112;-64
2021/07/03 05:56:26;;;;;;;7.88;5.68;;;;;;;19.22;56.56;98710.16;5052448;28;20033;-64
2021/07/03 05:58:52;;;;;;;7.40;5.75;;;;;;;19.26;56.17;98706.47;5051506;28;20783;-64
2021/07/03 06:01:17;;;;;;;5.72;5.22;;;;;;;19.39;55.88;98725.72;5052609;28;20095;-64
2021/07/03 06:03:43;;;;;;;5.97;5.38;;;;;;;19.53;55.85;98718.03;5054473;28;20033;-63
2021/07/03 06:06:08;;;;;;;7.38;5.70;;;;;;;19.63;55.44;98713.16;5052330;28;20123;-63
2021/07/03 06:08:33;;;;;;;6.07;4.85;;;;;;;19.60;55.12;98730.59;5053219;28;20040;-63
2021/07/03 06:10:59;;;;;;;7.05;6.10;;;;;;;19.54;55.54;98722.31;5051993;28;20044;-63
2021/07/03 06:13:24;;;;;;;7.15;5.65;;;;;;;19.68;54.92;98727.63;5052158;28;20136;-63
2021/07/03 06:15:49;;;;;;;8.00;6.05;;;;;;;19.85;54.73;98724.94;5052321;28;20028;-63
2021/07/03 06:18:15;;;;;;;5.97;5.35;;;;;;;19.97;54.15;98721.66;5037007;28;20120;-63
2021/07/03 06:20:40;;;;;;;8.43;5.40;;;;;;;20.09;53.70;98738.34;5052883;28;20088;-63
2021/07/03 06:23:07;;;;;;;5.50;4.78;;;;;;;20.37;53.45;98724.63;5054077;28;20048;-63
2021/07/03 06:25:32;;;;;;;6.28;4.85;;;;;;;20.43;52.87;98726.91;5052794;28;20381;-63
2021/07/03 06:27:58;;;;;;;5.45;4.95;;;;;;;20.32;53.12;98721.47;5049877;28;20079;-61
2021/07/03 06:30:23;;;;;;;5.35;4.85;;;;;;;20.24;53.50;98726.25;5050056;28;20102;-62
2021/07/03 06:32:49;;;;;;;6.40;5.10;;;;;;;20.31;52.73;98731.03;5050163;28;20107;-63
2021/07/03 06:35:15;;;;;;;5.43;4.93;;;;;;;20.31;52.86;98725.00;5049593;28;20309;-63
2021/07/03 06:37:40;;;;;;;5.53;4.85;;;;;;;20.42;52.58;98717.41;5050610;28;20079;-63
2021/07/03 06:40:06;;;;;;;5.80;4.97;;;;;;;20.75;51.83;98717.22;5051583;28;20033;-63
2021/07/03 06:42:32;;;;;;;5.05;4.65;;;;;;;20.50;51.46;98721.25;5050740;28;20108;-63
2021/07/03 06:44:58;;;;;;;6.03;4.63;;;;;;;20.66;51.39;98716.00;5051318;28;20039;-63
2021/07/03 06:47:23;;;;;;;4.72;4.07;;;;;;;20.49;51.94;98713.53;5049824;28;20593;-63
2021/07/03 06:49:48;;;;;;;8.70;4.68;;;;;;;20.37;51.89;98716.81;5053703;28;20455;-63
2021/07/03 06:52:14;;;;;;;5.70;3.90;;;;;;;20.49;52.24;98714.38;5052009;28;20036;-63
2021/07/03 06:54:41;;;;;;;6.93;4.95;;;;;;;20.46;52.09;98713.69;5051307;28;20366;-62
2021/07/03 06:57:08;;;;;;;4.50;4.13;;;;;;;20.30;51.99;98713.72;5051228;28;20029;-63
2021/07/03 06:59:34;;;;;;;4.68;4.28;;;;;;;20.35;52.17;98708.25;5050814;28;20039;-62
2021/07/03 07:02:00;;;;;;;5.25;4.57;;;;;;;20.48;51.59;98715.28;5050623;28;20306;-62
2021/07/03 07:04:25;;;;;;;5.18;4.60;;;;;;;20.37;51.79;98709.00;5050946;28;20087;-62
2021/07/03 07:06:55;;;;;;;6.32;4.57;;;;;;;20.22;51.54;98704.66;5052528;28;20037;-62
2021/07/03 07:09:20;;;;;;;4.53;4.13;;;;;;;20.04;52.22;98709.13;5052616;28;20404;-63
2021/07/03 07:11:46;;;;;;;5.55;5.00;;;;;;;19.97;52.03;98703.44;5050152;28;20043;-62
2021/07/03 07:14:12;;;;;;;5.30;4.15;;;;;;;19.97;51.87;98706.03;5048670;28;20021;-62
2021/07/03 07:16:37;;;;;;;5.65;4.57;;;;;;;20.11;51.52;98697.47;5050136;28;20389;-62
2021/07/03 07:19:03;;;;;;;4.95;4.55;;;;;;;20.08;51.72;98698.44;5048953;28;20048;-63
2021/07/03 07:21:29;;;;;;;7.03;4.38;;;;;;;20.10;51.25;98702.75;5050730;28;20076;-62
2021/07/03 07:23:55;;;;;;;4.53;4.07;;;;;;;20.44;51.00;98689.50;5049696;28;20116;-62
2021/07/03 07:26:20;;;;;;;5.47;3.70;;;;;;;20.70;50.02;98701.84;5052701;28;20075;-63
2021/07/03 07:28:48;;;;;;;4.82;3.67;;;;;;;20.72;50.06;98694.78;5052208;28;20112;-62
2021/07/03 07:31:13;;;;;;;4.20;3.80;;;;;;;20.94;49.38;98694.34;5049638;28;20390;-62
2021/07/03 07:33:39;;;;;;;3.40;3.03;;;;;;;21.09;48.54;98687.38;5048257;28;20020;-63
2021/07/03 07:36:05;;;;;;;3.97;3.55;;;;;;;21.08;48.23;98696.13;5052360;28;20380;-70
2021/07/03 07:38:31;;;;;;;3.88;3.58;;;;;;;21.04;48.63;98694.63;5049947;28;20036;-64
2021/07/03 07:40:56;;;;;;;3.88;3.50;;;;;;;21.19;48.30;98693.72;5049725;28;20036;-64
2021/07/03 07:43:22;;;;;;;6.70;3.85;;;;;;;21.30;48.09;98683.50;5048950;28;20276;-64
2021/07/03 07:45:48;;;;;;;4.03;3.63;;;;;;;21.44;47.85;98675.63;5050900;28;20063;-64
2021/07/03 07:48:14;;;;;;;4.68;3.75;;;;;;;21.56;47.14;98685.28;5050867;28;20086;-63
2021/07/03 07:50:40;;;;;;;4.35;3.90;;;;;;;21.55;46.67;98678.44;5051356;28;20041;-63
2021/07/03 07:53:05;;;;;;;4.18;3.42;;;;;;;21.72;46.46;98678.19;5051179;28;20343;-63
2021/07/03 07:55:31;;;;;;;5.65;3.55;;;;;;;21.57;46.65;98681.75;5051349;28;20037;-63
2021/07/03 07:57:56;;;;;;;3.92;3.63;;;;;;;21.68;45.31;98686.31;5051575;28;20033;-63
2021/07/03 08:00:22;;;;;;;7.22;3.63;;;;;;;21.83;45.46;98675.72;5050466;28;20420;-63
2021/07/03 08:02:49;;;;;;;6.95;3.97;;;;;;;22.14;44.50;98673.78;5048968;28;20064;-63
2021/07/03 08:05:15;;;;;;;5.20;4.03;;;;;;;22.56;44.43;98675.34;5050697;28;20198;-63
2021/07/03 08:07:40;;;;;;;3.53;3.20;;;;;;;22.67;43.70;98673.66;5051455;28;20847;-64
2021/07/03 08:10:06;;;;;;;11.25;3.85;;;;;;;22.83;43.36;98673.50;5049291;28;20033;-63
2021/07/03 08:12:32;;;;;;;3.72;3.45;;;;;;;22.89;42.36;98667.88;5050682;28;20526;-63
2021/07/03 08:14:57;;;;;;;5.78;3.58;;;;;;;22.87;42.76;98668.91;5051844;28;20032;-63
2021/07/03 08:17:23;;;;;;;3.95;3.55;;;;;;;22.67;42.42;98671.06;5051229;28;20021;-63
2021/07/03 08:19:48;;;;;;;4.72;4.13;;;;;;;22.84;42.68;98658.66;5050402;28;20052;-63
2021/07/03 08:22:13;;;;;;;4.10;3.80;;;;;;;23.18;41.91;98660.63;5048610;28;20033;-64
2021/07/03 08:24:39;;;;;;;3.67;3.35;;;;;;;23.31;41.87;98657.97;5050800;28;20025;-62
2021/07/03 08:27:05;;;;;;;4.78;3.55;;;;;;;23.14;42.05;98659.16;5050841;28;20116;-62
2021/07/03 08:29:30;;;;;;;3.80;3.50;;;;;;;23.14;41.21;98657.38;5049749;28;20040;-63
2021/07/03 08:31:56;;;;;;;4.45;3.53;;;;;;;22.93;41.11;98652.78;5050724;28;20025;-63
2021/07/03 08:34:21;;;;;;;4.03;2.97;;;;;;;22.68;40.74;98645.75;5050853;28;20029;-62
2021/07/03 08:36:47;;;;;;;3.97;3.55;;;;;;;22.77;41.83;98651.25;5051505;28;20032;-64
2021/07/03 08:39:13;;;;;;;4.80;2.83;;;;;;;22.57;40.93;98659.56;5049542;28;20066;-63
2021/07/03 08:41:40;;;;;;;4.15;3.42;;;;;;;22.40;42.80;98646.78;5051227;28;20373;-64
2021/07/03 08:44:08;;;;;;;4.78;3.70;;;;;;;22.28;44.05;98652.81;5047610;28;20041;-64
2021/07/03 08:46:34;;;;;;;4.35;3.47;;;;;;;22.08;43.92;98648.06;5049139;28;20029;-64
2021/07/03 08:49:02;;;;;;;3.40;3.17;;;;;;;22.12;41.88;98652.16;5048887;28;20431;-64
2021/07/03 08:51:28;;;;;;;3.63;3.20;;;;;;;22.39;42.33;98646.88;5049709;28;20029;-62
2021/07/03 08:53:54;;;;;;;3.70;3.13;;;;;;;22.49;41.82;98651.38;5049766;28;20519;-63
2021/07/03 08:56:19;;;;;;;3.47;3.17;;;;;;;22.25;40.48;98645.19;5049813;28;20029;-63
2021/07/03 08:58:45;;;;;;;3.53;3.22;;;;;;;22.40;41.43;98636.34;5049493;28;20025;-62
2021/07/03 09:01:11;;;;;;;4.80;3.90;;;;;;;22.35;41.22;98638.41;5049462;28;20027;-62
2021/07/03 09:03:36;;;;;;;4.70;3.40;;;;;;;22.59;41.00;98643.75;5049689;28;20116;-63
2021/07/03 09:06:06;;;;;;;4.10;3.53;;;;;;;22.81;40.99;98651.03;5048682;28;20061;-63
2021/07/03 09:08:32;;;;;;;4.47;3.10;;;;;;;22.78;40.09;98644.25;5047546;28;20025;-63
2021/07/03 09:11:05;;;;;;;3.25;2.95;;;;;;;23.06;39.95;98643.16;5048776;28;20083;-63
2021/07/03 09:13:31;;;;;;;5.93;3.95;;;;;;;22.88;40.17;98637.41;5049012;28;20417;-63
2021/07/03 09:15:57;;;;;;;4.18;3.78;;;;;;;23.11;40.54;98636.69;5035633;28;20321;-63
2021/07/03 09:18:25;;;;;;;5.35;3.55;;;;;;;22.93;39.69;98640.56;5049536;28;20124;-62
2021/07/03 09:20:56;;;;;;;3.97;3.67;;;;;;;22.91;38.49;98639.84;5047804;28;20148;-63
2021/07/03 09:23:22;;;;;;;4.85;3.67;;;;;;;22.84;39.56;98632.50;5049341;28;20025;-64
2021/07/03 09:26:00;;;;;;;4.07;3.70;;;;;;;22.90;40.04;98643.41;5048617;28;20029;-63
2021/07/03 09:28:27;;;;;;;4.03;3.63;;;;;;;23.23;40.20;98634.97;5048371;28;20042;-64
2021/07/03 09:30:57;;;;;;;4.70;4.30;;;;;;;23.59;39.64;98634.19;5049747;28;20033;-64
2021/07/03 09:33:25;;;;;;;4.32;3.85;;;;;;;23.37;39.03;98628.78;5047555;28;20619;-64
2021/07/03 09:36:02;;;;;;;3.60;3.30;;;;;;;23.38;38.96;98628.66;5048703;28;20045;-63
2021/07/03 09:38:49;;;;;;;4.85;3.63;;;;;;;23.34;38.07;98627.19;5048237;28;20078;-63
2021/07/03 09:41:16;;;;;;;4.75;3.28;;;;;;;23.27;37.58;98630.34;5048281;28;20044;-63
2021/07/03 09:44:07;;;;;;;4.05;3.63;;;;;;;23.29;37.71;98624.09;5032693;28;20064;-64
2021/07/03 09:46:46;;;;;;;3.97;3.42;;;;;;;23.25;37.99;98620.03;5037649;28;20069;-64
2021/07/03 09:49:14;;;;;;;4.57;3.42;;;;;;;23.22;37.38;98625.44;5047693;28;20020;-65
2021/07/03 09:51:53;;;;;;;4.15;3.80;;;;;;;23.41;37.44;98615.38;5048469;28;20024;-63
2021/07/03 09:54:22;;;;;;;3.90;3.60;;;;;;;23.99;36.94;98603.28;5046836;28;20618;-63
2021/07/03 09:56:58;;;;;;;3.35;3.05;;;;;;;24.15;35.66;98609.09;5047858;28;20033;-62
2021/07/03 09:59:28;;;;;;;3.20;2.90;;;;;;;24.36;35.72;98620.59;5047357;28;20293;-64
2021/07/03 10:01:53;;;;;;;4.05;3.38;;;;;;;24.05;35.50;98614.16;5047253;28;20116;-63
2021/07/03 10:04:19;;;;;;;3.15;2.95;;;;;;;24.12;33.81;98611.91;5047160;28;20025;-63
2021/07/03 10:06:55;;;;;;;3.53;2.88;;;;;;;24.48;33.71;98613.59;5050259;28;20036;-62
2021/07/03 10:09:33;;;;;;;4.05;3.50;;;;;;;24.46;35.20;98613.72;5051460;28;20025;-62
2021/07/03 10:12:10;;;;;;;4.47;3.70;;;;;;;24.29;35.12;98601.03;5033292;28;20081;-63
2021/07/03 10:14:42;;;;;;;4.05;3.30;;;;;;;24.14;32.68;98602.16;5053112;28;20090;-63
2021/07/03 10:17:08;;;;;;;6.63;3.70;;;;;;;24.35;33.14;98599.75;5050809;28;20020;-63
2021/07/03 10:19:36;;;;;;;10.27;3.88;;;;;;;24.41;33.82;98612.38;5052863;28;20021;-63
2021/07/03 10:22:17;;;;;;;4.07;3.78;;;;;;;24.26;33.79;98596.03;5051334;28;20234;-63
2021/07/03 10:24:48;;;;;;;4.03;3.72;;;;;;;23.96;35.12;98603.53;5049763;28;20050;-63
2021/07/03 10:27:19;;;;;;;4.57;4.15;;;;;;;24.11;34.03;98597.13;5046933;28;20029;-62
2021/07/03 10:29:47;;;;;;;4.25;3.95;;;;;;;24.32;34.20;98595.56;5050181;28;20098;-62
2021/07/03 10:32:39;;;;;;;4.57;3.60;;;;;;;24.52;33.80;98599.31;5050193;28;20310;-63
2021/07/03 10:35:11;;;;;;;3.75;3.45;;;;;;;24.43;34.54;98597.38;5039778;28;20037;-62
2021/07/03 10:37:37;;;;;;;4.07;3.67;;;;;;;24.40;33.18;98602.88;5051655;28;20439;-63
2021/07/03 10:40:18;;;;;;;5.28;3.97;;;;;;;24.72;32.94;98592.53;5050120;28;20025;-63
2021/07/03 10:42:44;;;;;;;5.55;3.13;;;;;;;24.86;32.82;98585.31;5051563;28;20031;-62
2021/07/03 10:45:12;;;;;;;6.35;4.70;;;;;;;24.92;33.45;98576.09;5052635;28;20345;-63
2021/07/03 10:47:38;;;;;;;4.30;4.00;;;;;;;24.80;32.29;98579.66;5051601;28;20051;-63
2021/07/03 10:50:25;;;;;;;3.95;3.65;;;;;;;24.51;32.24;98571.41;5034830;28;20028;-62
2021/07/03 10:52:53;;;;;;;4.22;3.92;;;;;;;24.89;33.19;98563.25;5051587;28;20025;-63
2021/07/03 10:55:45;;;;;;;4.35;3.95;;;;;;;24.88;32.58;98564.19;5050974;28;20020;-65
2021/07/03 10:58:19;;;;;;;4.63;4.28;;;;;;;25.24;32.64;98553.41;5046855;28;20044;-63
2021/07/03 11:00:49;;;;;;;4.47;4.10;;;;;;;25.01;32.58;98567.50;5050844;28;20274;-63
2021/07/03 11:03:20;;;;;;;4.38;3.55;;;;;;;24.83;32.67;98556.63;5051582;28;20028;-63
2021/07/03 11:05:47;;;;;;;3.90;3.63;;;;;;;24.67;32.79;98552.72;5051288;28;20123;-63
2021/07/03 11:08:14;;;;;;;4.43;4.05;;;;;;;24.80;32.77;98551.66;5050405;28;20361;-62
2021/07/03 11:10:41;;;;;;;6.85;3.83;;;;;;;24.69;33.21;98535.09;5049919;28;20285;-64
2021/07/03 11:13:21;;;;;;;4.32;3.90;;;;;;;25.02;32.83;98529.84;5050386;28;20049;-63
2021/07/03 11:15:47;;;;;;;3.80;3.50;;;;;;;25.31;32.39;98533.59;5051124;28;20100;-63
2021/07/03 11:18:13;;;;;;;6.28;4.05;;;;;;;25.20;32.15;98528.38;5049603;28;20741;-64
2021/07/03 11:20:42;;;;;;;4.70;4.30;;;;;;;25.28;31.88;98533.84;5049553;28;20298;-64
2021/07/03 11:23:09;;;;;;;7.72;4.97;;;;;;;25.11;31.19;98525.66;5050984;28;20082;-65
2021/07/03 11:25:44;;;;;;;3.92;3.53;;;;;;;25.19;31.82;98531.13;5050973;28;20079;-64
2021/07/03 11:28:16;;;;;;;3.60;3.38;;;;;;;25.25;31.28;98525.38;5050633;28;20265;-64
2021/07/03 11:30:47;;;;;;;4.18;3.80;;;;;;;25.47;30.79;98520.03;5049545;28;20342;-64